createdAt,value
2023-05-10T00:01:27.846Z,26.70
2023-05-10T00:03:56.068Z,26.80
2023-05-10T00:06:24.248Z,26.80
2023-05-10T00:08:53.052Z,26.80
2023-05-10T00:11:22.209Z,26.80
2023-05-10T00:13:51.365Z,26.90
2023-05-10T00:16:18.998Z,26.90
2023-05-10T00:18:46.549Z,26.90
2023-05-10T00:21:14.526Z,27.00
2023-05-10T00:23:42.104Z,27.00
2023-05-10T00:26:09.652Z,27.00
2023-05-10T00:28:37.356Z,27.00
2023-05-10T00:31:04.938Z,27.00
2023-05-10T00:33:32.665Z,27.10
2023-05-10T00:36:00.398Z,27.10
2023-05-10T00:38:27.998Z,27.10
2023-05-10T00:40:55.550Z,27.20
2023-05-10T00:43:23.380Z,27.30
2023-05-10T00:45:51.026Z,27.30
2023-05-10T00:48:18.696Z,27.30
2023-05-10T00:50:46.461Z,27.30
2023-05-10T00:53:14.052Z,27.40
2023-05-10T00:55:41.662Z,27.40
2023-05-10T00:58:09.425Z,27.50
2023-05-10T01:00:37.199Z,27.50
2023-05-10T01:03:04.903Z,27.50
2023-05-10T01:05:32.870Z,27.40
2023-05-10T01:08:00.556Z,27.50
2023-05-10T01:10:28.143Z,27.50
2023-05-10T01:12:56.245Z,27.60
2023-05-10T01:15:23.840Z,27.70
2023-05-10T01:17:51.464Z,27.80
2023-05-10T01:20:19.422Z,28.10
2023-05-10T01:22:47.417Z,28.10
2023-05-10T01:25:14.998Z,28.20
2023-05-10T01:27:42.800Z,28.20
2023-05-10T01:30:16.009Z,28.30
2023-05-10T01:32:43.968Z,28.50
2023-05-10T01:35:11.608Z,28.60
2023-05-10T01:37:39.416Z,28.60
2023-05-10T01:40:07.168Z,28.60
2023-05-10T01:42:34.933Z,28.70
2023-05-10T01:45:02.527Z,28.80
2023-05-10T01:47:30.373Z,28.90
2023-05-10T01:49:57.910Z,29.10
2023-05-10T01:52:25.662Z,29.00
2023-05-10T01:54:53.246Z,29.00
2023-05-10T01:57:20.876Z,29.10
2023-05-10T01:59:48.506Z,29.10
2023-05-10T02:02:16.109Z,29.00
2023-05-10T02:04:43.791Z,29.00
2023-05-10T02:07:11.351Z,29.20
2023-05-10T02:09:38.955Z,29.30
2023-05-10T02:12:06.799Z,29.20
2023-05-10T02:14:34.449Z,29.20
2023-05-10T02:17:02.156Z,29.50
2023-05-10T02:19:29.838Z,29.70
2023-05-10T02:21:57.381Z,29.70
2023-05-10T02:24:25.162Z,29.60
2023-05-10T02:26:53.272Z,29.70
2023-05-10T02:29:20.830Z,29.60
2023-05-10T02:31:48.676Z,29.70
2023-05-10T02:34:16.252Z,29.70
2023-05-10T02:36:43.819Z,29.70
2023-05-10T02:39:11.430Z,29.80
2023-05-10T02:41:39.000Z,30.10
2023-05-10T02:44:07.490Z,30.20
2023-05-10T02:46:35.093Z,30.50
2023-05-10T02:49:02.726Z,30.40
2023-05-10T02:51:31.419Z,30.20
2023-05-10T02:54:00.156Z,30.40
2023-05-10T02:56:27.852Z,30.50
2023-05-10T02:58:55.423Z,30.40
2023-05-10T03:01:23.210Z,30.70
2023-05-10T03:03:51.142Z,30.90
2023-05-10T03:06:18.704Z,30.90
2023-05-10T03:08:46.537Z,31.00
2023-05-10T03:11:15.206Z,31.00
2023-05-10T03:13:42.809Z,30.90
2023-05-10T03:16:10.761Z,30.90
2023-05-10T03:18:39.044Z,31.20
2023-05-10T03:21:06.585Z,31.30
2023-05-10T03:23:34.442Z,31.40
2023-05-10T03:26:02.216Z,31.50
2023-05-10T03:28:29.768Z,31.60
2023-05-10T03:30:57.673Z,31.70
2023-05-10T03:33:25.399Z,31.80
2023-05-10T03:35:52.977Z,31.90
2023-05-10T03:38:20.576Z,31.80
2023-05-10T03:40:48.354Z,31.70
2023-05-10T03:43:15.914Z,31.70
2023-05-10T03:45:43.553Z,31.90
2023-05-10T03:48:11.207Z,32.10
2023-05-10T03:50:38.758Z,32.20
2023-05-10T03:53:06.420Z,32.20
2023-05-10T03:55:34.535Z,32.50
2023-05-10T03:58:02.227Z,32.50
2023-05-10T04:00:29.937Z,32.60
2023-05-10T04:02:57.690Z,32.40
2023-05-10T04:05:25.296Z,32.50
2023-05-10T04:07:52.992Z,32.70
2023-05-10T04:10:20.607Z,32.70
2023-05-10T04:12:48.236Z,32.60
2023-05-10T04:15:15.956Z,32.60
2023-05-10T04:17:43.608Z,32.40
2023-05-10T04:20:12.056Z,32.60
2023-05-10T04:22:39.890Z,32.60
2023-05-10T04:25:07.471Z,32.60
2023-05-10T04:27:35.005Z,32.70
2023-05-10T04:30:02.770Z,32.70
2023-05-10T04:32:30.640Z,32.80
2023-05-10T04:34:58.244Z,32.90
2023-05-10T04:37:25.989Z,32.90
2023-05-10T04:39:53.676Z,33.10
2023-05-10T04:42:21.263Z,33.30
2023-05-10T04:44:48.950Z,33.40
2023-05-10T04:47:17.577Z,33.50
2023-05-10T04:49:45.136Z,33.40
2023-05-10T04:52:12.726Z,33.20
2023-05-10T04:54:40.433Z,33.10
2023-05-10T04:57:08.041Z,33.10
2023-05-10T04:59:35.641Z,33.00
2023-05-10T05:02:03.665Z,32.90
2023-05-10T05:04:31.463Z,32.80
2023-05-10T05:06:59.298Z,33.10
2023-05-10T05:09:26.963Z,33.20
2023-05-10T05:11:54.555Z,33.30
2023-05-10T05:14:22.421Z,33.40
2023-05-10T05:16:50.154Z,33.30
2023-05-10T05:19:17.843Z,33.10
2023-05-10T05:21:45.484Z,33.10
2023-05-10T05:24:13.184Z,33.40
2023-05-10T05:26:40.740Z,33.40
2023-05-10T05:29:08.335Z,33.30
2023-05-10T05:31:36.476Z,33.10
2023-05-10T05:34:04.095Z,32.90
2023-05-10T05:36:31.896Z,33.10
2023-05-10T05:38:59.562Z,33.30
2023-05-10T05:41:27.175Z,33.30
2023-05-10T05:43:54.963Z,33.40
2023-05-10T05:46:22.788Z,33.40
2023-05-10T05:48:50.562Z,33.40
2023-05-10T05:51:18.284Z,33.30
2023-05-10T05:53:46.018Z,33.40
2023-05-10T05:56:13.697Z,33.30
2023-05-10T05:58:41.396Z,33.40
2023-05-10T06:01:09.045Z,33.50
2023-05-10T06:03:36.561Z,33.70
2023-05-10T06:06:04.953Z,33.80
2023-05-10T06:08:33.190Z,33.90
2023-05-10T06:11:00.884Z,33.90
2023-05-10T06:13:28.577Z,33.90
2023-05-10T06:15:56.311Z,34.00
2023-05-10T06:18:23.935Z,33.90
2023-05-10T06:20:51.467Z,33.90
2023-05-10T06:23:19.185Z,34.00
2023-05-10T06:25:46.854Z,34.10
2023-05-10T06:28:14.647Z,34.20
2023-05-10T06:30:42.317Z,34.20
2023-05-10T06:33:09.997Z,34.00
2023-05-10T06:35:37.934Z,33.70
2023-05-10T06:38:05.643Z,33.50
2023-05-10T06:40:33.298Z,33.70
2023-05-10T06:43:01.030Z,33.90
2023-05-10T06:45:28.664Z,33.90
2023-05-10T06:47:56.284Z,34.20
2023-05-10T06:50:23.947Z,34.40
2023-05-10T06:52:53.053Z,34.30
2023-05-10T06:55:20.857Z,34.40
2023-05-10T06:57:48.463Z,34.50
2023-05-10T07:00:16.338Z,34.50
2023-05-10T07:02:44.179Z,34.20
2023-05-10T07:05:11.761Z,34.30
2023-05-10T07:07:39.359Z,34.10
2023-05-10T07:10:07.110Z,34.10
2023-05-10T07:12:34.982Z,34.30
2023-05-10T07:15:02.890Z,34.50
2023-05-10T07:17:30.868Z,34.60
2023-05-10T07:19:58.533Z,34.60
2023-05-10T07:22:26.416Z,34.90
2023-05-10T07:24:54.112Z,34.70
2023-05-10T07:27:21.705Z,34.80
2023-05-10T07:29:49.486Z,35.00
2023-05-10T07:32:17.046Z,34.50
2023-05-10T07:34:44.971Z,34.50
2023-05-10T07:37:12.724Z,34.70
2023-05-10T07:39:40.463Z,34.90
2023-05-10T07:42:08.552Z,34.70
2023-05-10T07:44:36.159Z,34.50
2023-05-10T07:47:03.772Z,34.30
2023-05-10T07:49:32.021Z,34.40
2023-05-10T07:51:59.635Z,34.50
2023-05-10T07:54:27.179Z,34.60
2023-05-10T07:56:54.742Z,34.40
2023-05-10T07:59:22.373Z,34.40
2023-05-10T08:01:49.927Z,34.70
2023-05-10T08:04:17.832Z,34.80
2023-05-10T08:06:45.397Z,34.90
2023-05-10T08:09:12.958Z,34.60
2023-05-10T08:11:40.683Z,34.60
2023-05-10T08:14:08.329Z,34.30
2023-05-10T08:16:36.047Z,34.10
2023-05-10T08:19:03.912Z,34.00
2023-05-10T08:21:31.516Z,34.10
2023-05-10T08:23:59.390Z,34.30
2023-05-10T08:26:27.014Z,34.40
2023-05-10T08:28:54.732Z,34.40
2023-05-10T08:31:22.326Z,34.50
2023-05-10T08:33:49.962Z,34.50
2023-05-10T08:36:17.470Z,34.50
2023-05-10T08:38:45.208Z,34.50
2023-05-10T08:41:12.754Z,34.30
2023-05-10T08:43:40.372Z,34.00
2023-05-10T08:46:08.408Z,34.00
2023-05-10T08:48:36.310Z,34.00
2023-05-10T08:51:03.915Z,34.10
2023-05-10T08:53:31.639Z,34.10
2023-05-10T08:55:59.365Z,33.90
2023-05-10T08:58:26.968Z,33.70
2023-05-10T09:00:54.608Z,33.70
2023-05-10T09:03:22.396Z,33.70
2023-05-10T09:05:49.981Z,33.60
2023-05-10T09:08:17.736Z,33.50
2023-05-10T09:10:45.526Z,33.60
2023-05-10T09:13:13.081Z,33.50
2023-05-10T09:15:40.963Z,33.60
2023-05-10T09:18:16.687Z,33.50
2023-05-10T09:20:47.914Z,33.50
2023-05-10T09:31:21.246Z,33.10
2023-05-10T09:33:49.039Z,33.10
2023-05-10T09:36:16.667Z,33.00
2023-05-10T09:38:44.346Z,33.00
2023-05-10T09:41:12.091Z,33.00
2023-05-10T09:43:39.638Z,33.00
2023-05-10T09:46:10.768Z,32.90
2023-05-10T09:54:05.504Z,32.70
2023-05-10T09:56:34.536Z,32.60
2023-05-10T09:59:03.559Z,32.60
2023-05-10T10:01:31.504Z,32.40
2023-05-10T10:03:59.260Z,32.40
2023-05-10T10:06:30.341Z,32.40
2023-05-10T10:08:58.604Z,32.40
2023-05-10T10:11:32.145Z,32.30
2023-05-10T10:19:28.830Z,32.30
2023-05-10T10:21:58.274Z,32.30
2023-05-10T10:24:26.433Z,32.20
2023-05-10T10:26:54.001Z,32.30
2023-05-10T10:29:21.711Z,32.30
2023-05-10T10:31:50.043Z,32.20
2023-05-10T10:34:18.940Z,31.80
2023-05-10T10:36:47.637Z,31.70
2023-05-10T10:39:15.342Z,31.50
2023-05-10T10:41:42.908Z,31.50
2023-05-10T10:44:12.648Z,30.90
2023-05-10T10:46:42.762Z,30.90
2023-05-10T10:49:15.604Z,31.00
2023-05-10T10:51:43.465Z,31.00
2023-05-10T10:54:11.091Z,31.20
2023-05-10T10:56:38.778Z,31.20
2023-05-10T10:59:06.588Z,31.10
2023-05-10T11:01:46.424Z,30.90
2023-05-10T11:06:56.352Z,30.70
2023-05-10T11:12:13.374Z,30.50
2023-05-10T11:14:50.103Z,30.20
2023-05-10T11:17:32.124Z,30.10
2023-05-10T11:20:00.394Z,30.20
2023-05-10T11:22:28.007Z,30.20
2023-05-10T11:24:55.588Z,29.70
2023-05-10T11:27:23.222Z,30.00
2023-05-10T11:29:51.052Z,29.90
2023-05-10T11:32:18.542Z,30.00
2023-05-10T11:35:02.781Z,30.10
2023-05-10T11:37:43.937Z,30.10
2023-05-10T11:40:30.740Z,30.30
2023-05-10T11:42:59.283Z,30.30
2023-05-10T11:45:28.489Z,30.30
2023-05-10T11:47:56.098Z,30.40
2023-05-10T11:50:23.902Z,30.40
2023-05-10T11:52:51.538Z,30.50
2023-05-10T11:55:19.246Z,30.50
2023-05-10T11:57:57.421Z,30.50
2023-05-10T12:03:15.217Z,30.50
2023-05-10T12:05:44.341Z,30.50
2023-05-10T12:08:12.515Z,30.40
2023-05-10T12:10:40.038Z,30.40
2023-05-10T12:13:07.772Z,30.30
2023-05-10T12:15:36.913Z,30.30
2023-05-10T12:18:13.872Z,30.30
2023-05-10T12:20:45.806Z,30.30
2023-05-10T12:26:01.418Z,30.30
2023-05-10T12:28:29.402Z,30.40
2023-05-10T12:30:57.075Z,30.30
2023-05-10T12:33:25.778Z,30.30
2023-05-10T12:35:53.378Z,30.30
2023-05-10T12:38:20.885Z,30.20
2023-05-10T12:40:49.413Z,30.10
2023-05-10T12:43:17.368Z,30.10
2023-05-10T12:48:44.628Z,30.20
2023-05-10T12:53:57.073Z,30.20
2023-05-10T12:56:31.288Z,30.10
2023-05-10T12:58:59.280Z,30.20
2023-05-10T13:01:27.069Z,30.00
2023-05-10T13:03:54.675Z,30.00
2023-05-10T13:06:22.509Z,29.90
2023-05-10T13:08:50.913Z,29.90
2023-05-10T13:11:18.448Z,30.00
2023-05-10T13:13:46.661Z,29.90
2023-05-10T13:16:14.231Z,29.90
2023-05-10T13:21:22.571Z,29.90
2023-05-10T13:23:50.327Z,29.90
2023-05-10T13:26:17.983Z,29.90
2023-05-10T13:28:45.968Z,29.90
2023-05-10T13:31:13.524Z,29.90
2023-05-10T13:33:42.233Z,29.80
2023-05-10T13:36:09.902Z,29.90
2023-05-10T13:38:37.541Z,29.80
2023-05-10T13:41:05.116Z,29.80
2023-05-10T13:43:33.093Z,29.70
2023-05-10T13:46:00.805Z,29.80
2023-05-10T13:48:28.509Z,29.90
2023-05-10T13:50:56.450Z,29.80
2023-05-10T13:53:24.322Z,29.70
2023-05-10T13:55:52.352Z,29.80
2023-05-10T13:58:21.086Z,29.70
2023-05-10T14:00:49.821Z,29.70
2023-05-10T14:03:17.527Z,29.70
2023-05-10T14:05:45.916Z,29.70
2023-05-10T14:08:13.513Z,29.70
2023-05-10T14:10:41.034Z,29.70
2023-05-10T14:13:08.804Z,29.70
2023-05-10T14:15:37.030Z,29.60
2023-05-10T14:20:46.452Z,29.70
2023-05-10T14:23:14.159Z,29.70
2023-05-10T14:25:41.708Z,29.70
2023-05-10T14:28:09.527Z,29.70
2023-05-10T14:30:37.102Z,29.70
2023-05-10T14:33:04.762Z,29.70
2023-05-10T14:35:35.622Z,29.70
2023-05-10T14:38:09.385Z,29.60
2023-05-10T14:40:40.047Z,29.40
2023-05-10T14:43:07.656Z,29.50
2023-05-10T14:45:35.276Z,29.40
2023-05-10T14:48:07.271Z,29.50
2023-05-10T14:53:15.871Z,29.60
2023-05-10T14:55:43.757Z,29.50
2023-05-10T14:58:11.350Z,29.50
2023-05-10T15:00:39.004Z,29.50
2023-05-10T15:03:08.028Z,29.50
2023-05-10T15:05:50.699Z,29.50
2023-05-10T15:08:22.192Z,29.50
2023-05-10T15:10:57.332Z,29.40
2023-05-10T15:13:44.315Z,29.30
2023-05-10T15:16:14.517Z,29.50
2023-05-10T15:18:42.099Z,29.50
2023-05-10T15:21:10.728Z,29.50
2023-05-10T15:23:38.232Z,29.50
2023-05-10T15:26:10.561Z,29.40
2023-05-10T15:28:41.309Z,29.40
2023-05-10T15:31:11.818Z,29.30
2023-05-10T15:33:44.939Z,29.30
2023-05-10T15:36:12.529Z,29.40
2023-05-10T15:38:40.046Z,29.40
2023-05-10T15:41:08.177Z,29.30
2023-05-10T15:43:35.684Z,29.20
2023-05-10T15:46:03.309Z,29.10
2023-05-10T15:48:30.999Z,29.00
2023-05-10T15:50:58.489Z,28.90
2023-05-10T15:53:26.045Z,28.90
2023-05-10T15:55:54.124Z,29.00
2023-05-10T15:58:21.699Z,29.00
2023-05-10T16:00:49.458Z,28.70
2023-05-10T16:03:25.929Z,28.90
2023-05-10T16:05:54.610Z,28.90
2023-05-10T16:08:22.442Z,29.10
2023-05-10T16:10:50.052Z,29.10
2023-05-10T16:13:17.674Z,29.20
2023-05-10T16:15:45.385Z,29.30
2023-05-10T16:18:12.924Z,29.10
2023-05-10T16:20:46.054Z,29.10
2023-05-10T16:23:13.972Z,29.00
2023-05-10T16:25:41.539Z,29.10
2023-05-10T16:28:09.049Z,29.00
2023-05-10T16:30:36.876Z,29.00
2023-05-10T16:33:04.642Z,29.10
2023-05-10T16:35:32.436Z,29.10
2023-05-10T16:38:00.477Z,29.10
2023-05-10T16:40:28.050Z,29.10
2023-05-10T16:42:55.596Z,29.10
2023-05-10T16:45:23.284Z,29.00
2023-05-10T16:47:50.911Z,28.80
2023-05-10T16:50:18.503Z,28.50
2023-05-10T16:52:46.478Z,28.50
2023-05-10T16:55:13.993Z,28.50
2023-05-10T16:57:41.651Z,28.30
2023-05-10T17:00:09.338Z,28.40
2023-05-10T17:02:38.948Z,28.20
2023-05-10T17:05:06.576Z,28.30
2023-05-10T17:07:34.295Z,28.10
2023-05-10T17:10:01.812Z,28.10
2023-05-10T17:12:29.421Z,28.00
2023-05-10T17:14:57.282Z,28.20
2023-05-10T17:17:24.883Z,28.00
2023-05-10T17:19:52.445Z,28.00
2023-05-10T17:22:20.457Z,28.10
2023-05-10T17:24:48.140Z,28.00
2023-05-10T17:27:15.677Z,28.00
2023-05-10T17:29:43.483Z,27.80
2023-05-10T17:32:11.036Z,27.70
2023-05-10T17:34:38.604Z,27.60
2023-05-10T17:37:07.297Z,27.70
2023-05-10T17:39:35.250Z,27.60
2023-05-10T17:42:02.822Z,27.20
2023-05-10T17:44:30.826Z,27.40
2023-05-10T17:46:58.409Z,27.50
2023-05-10T17:49:25.914Z,27.50
2023-05-10T17:51:53.915Z,27.30
2023-05-10T17:54:22.679Z,27.30
2023-05-10T17:56:50.264Z,27.20
2023-05-10T17:59:17.976Z,27.20
2023-05-10T18:01:45.582Z,27.30
2023-05-10T18:04:13.872Z,27.30
2023-05-10T18:06:41.913Z,27.10
2023-05-10T18:09:09.948Z,26.90
2023-05-10T18:11:37.757Z,27.00
2023-05-10T18:14:05.670Z,27.00
2023-05-10T18:16:33.278Z,27.00
2023-05-10T18:19:02.754Z,27.00
2023-05-10T18:21:30.931Z,27.00
2023-05-10T18:23:58.486Z,27.00
2023-05-10T18:26:26.007Z,26.90
2023-05-10T18:28:54.029Z,26.90
2023-05-10T18:31:21.622Z,26.90
2023-05-10T18:33:49.225Z,26.80
2023-05-10T18:36:17.290Z,26.80
2023-05-10T18:38:45.639Z,26.80
2023-05-10T18:41:13.215Z,26.90
2023-05-10T18:43:40.984Z,26.60
2023-05-10T18:46:08.508Z,26.50
2023-05-10T18:48:36.100Z,26.70
2023-05-10T18:51:04.020Z,26.80
2023-05-10T18:53:31.587Z,26.90
2023-05-10T18:55:59.161Z,26.90
2023-05-10T18:58:27.666Z,26.80
2023-05-10T19:00:55.220Z,26.80
2023-05-10T19:03:22.739Z,26.80
2023-05-10T19:05:51.402Z,26.70
2023-05-10T19:08:18.959Z,26.80
2023-05-10T19:10:46.560Z,26.60
2023-05-10T19:13:14.686Z,26.70
2023-05-10T19:15:42.589Z,26.80
2023-05-10T19:18:10.286Z,26.70
2023-05-10T19:20:39.744Z,26.80
2023-05-10T19:23:10.125Z,26.70
2023-05-10T19:25:38.308Z,26.70
2023-05-10T19:28:08.933Z,26.70
2023-05-10T19:30:36.940Z,26.80
2023-05-10T19:33:07.708Z,26.60
2023-05-10T19:35:35.295Z,26.60
2023-05-10T19:38:02.975Z,26.60
2023-05-10T19:40:30.716Z,26.60
2023-05-10T19:42:58.381Z,26.50
2023-05-10T19:45:25.936Z,26.40
2023-05-10T19:47:53.516Z,26.40
2023-05-10T19:50:21.422Z,26.50
2023-05-10T19:52:50.436Z,26.40
2023-05-10T19:55:21.099Z,26.40
2023-05-10T19:57:48.764Z,26.30
2023-05-10T20:00:16.429Z,26.30
2023-05-10T20:02:44.181Z,26.40
2023-05-10T20:05:11.721Z,26.40
2023-05-10T20:07:39.265Z,26.40
2023-05-10T20:10:07.097Z,26.40
2023-05-10T20:12:36.510Z,26.40
2023-05-10T20:15:04.325Z,26.50
2023-05-10T20:17:32.922Z,26.40
2023-05-10T20:20:00.948Z,26.40
2023-05-10T20:22:29.672Z,26.50
2023-05-10T20:24:57.727Z,26.40
2023-05-10T20:27:25.590Z,26.40
2023-05-10T20:29:53.175Z,26.40
2023-05-10T20:32:20.830Z,26.40
2023-05-10T20:34:48.724Z,26.40
2023-05-10T20:37:17.026Z,26.40
2023-05-10T20:39:44.849Z,26.40
2023-05-10T20:42:12.649Z,26.40
2023-05-10T20:44:40.243Z,26.40
2023-05-10T20:47:07.799Z,26.50
2023-05-10T20:49:53.789Z,26.40
2023-05-10T20:52:40.046Z,26.40
2023-05-10T20:55:27.987Z,26.40
2023-05-10T20:58:15.819Z,26.40
2023-05-10T21:01:03.628Z,26.40
2023-05-10T21:03:51.471Z,26.40
2023-05-10T21:06:39.436Z,26.50
2023-05-10T21:09:27.250Z,26.50
2023-05-10T21:12:15.017Z,26.40
2023-05-10T21:15:02.838Z,26.40
2023-05-10T21:17:50.607Z,26.50
2023-05-10T21:20:38.426Z,26.40
2023-05-10T21:23:26.985Z,26.40
2023-05-10T21:26:14.768Z,26.30
2023-05-10T21:29:02.701Z,26.30
2023-05-10T21:31:51.861Z,26.20
2023-05-10T21:34:40.328Z,26.20
2023-05-10T21:37:28.133Z,26.30
2023-05-10T21:40:16.184Z,26.20
2023-05-10T21:43:04.474Z,26.20
2023-05-10T21:45:52.498Z,26.20
2023-05-10T21:48:40.505Z,26.00
2023-05-10T21:51:28.728Z,26.10
2023-05-10T21:54:16.728Z,26.20
2023-05-10T21:57:04.678Z,26.20
2023-05-10T21:59:52.635Z,26.30
2023-05-10T22:02:40.696Z,26.20
2023-05-10T22:05:28.666Z,26.30
2023-05-10T22:08:16.512Z,26.20
2023-05-10T22:11:04.356Z,26.20
2023-05-10T22:13:53.885Z,26.20
2023-05-10T22:16:41.757Z,26.30
2023-05-10T22:19:29.697Z,26.20
2023-05-10T22:22:17.653Z,26.20
2023-05-10T22:25:05.538Z,26.20
2023-05-10T22:27:53.375Z,26.20
2023-05-10T22:30:42.244Z,26.20
2023-05-10T22:33:30.288Z,26.30
2023-05-10T22:36:18.092Z,26.30
2023-05-10T22:39:06.068Z,26.20
2023-05-10T22:41:54.409Z,26.20
2023-05-10T22:44:43.262Z,26.20
2023-05-10T22:47:31.255Z,26.20
2023-05-10T22:50:19.378Z,26.20
2023-05-10T22:53:07.542Z,26.00
2023-05-10T22:55:55.526Z,26.00
2023-05-10T22:58:43.376Z,26.10
2023-05-10T23:01:31.240Z,26.20
2023-05-10T23:04:19.127Z,26.20
2023-05-10T23:07:07.127Z,26.00
2023-05-10T23:09:54.953Z,25.90
2023-05-10T23:12:42.917Z,26.20
2023-05-10T23:15:30.744Z,25.90
2023-05-10T23:18:18.738Z,25.90
2023-05-10T23:20:46.402Z,25.80
2023-05-10T23:23:15.483Z,25.80
2023-05-10T23:25:43.384Z,25.60
2023-05-10T23:28:11.338Z,25.40
2023-05-10T23:30:46.260Z,25.60
2023-05-10T23:33:16.625Z,25.40
2023-05-10T23:35:44.974Z,25.30
2023-05-10T23:38:15.434Z,25.30
2023-05-10T23:40:45.160Z,25.30
2023-05-10T23:43:13.426Z,25.30
2023-05-10T23:45:45.143Z,25.20
2023-05-10T23:48:18.524Z,25.40
2023-05-10T23:50:50.433Z,25.50
2023-05-10T23:53:18.381Z,25.60
2023-05-10T23:55:46.411Z,25.60
2023-05-10T23:58:14.630Z,25.60
